createdAt,value
2023-02-14T00:01:23.915Z,4.40
2023-02-14T00:03:51.378Z,4.30
2023-02-14T00:06:18.786Z,4.30
2023-02-14T00:08:46.263Z,4.30
2023-02-14T00:11:14.286Z,4.30
2023-02-14T00:14:01.741Z,4.30
2023-02-14T00:16:29.278Z,4.30
2023-02-14T00:19:03.424Z,4.30
2023-02-14T00:21:37.120Z,4.30
2023-02-14T00:24:07.829Z,4.30
2023-02-14T00:26:35.286Z,4.30
2023-02-14T00:29:03.122Z,4.30
2023-02-14T00:31:30.725Z,4.30
2023-02-14T00:33:58.222Z,4.30
2023-02-14T00:36:25.728Z,4.30
2023-02-14T00:38:53.380Z,4.40
2023-02-14T00:41:21.173Z,4.40
2023-02-14T00:43:51.381Z,4.30
2023-02-14T00:46:21.028Z,4.40
2023-02-14T00:48:48.656Z,4.30
2023-02-14T00:51:18.566Z,4.30
2023-02-14T00:53:47.966Z,4.30
2023-02-14T00:56:16.570Z,4.40
2023-02-14T00:58:44.801Z,4.30
2023-02-14T01:01:14.106Z,4.20
2023-02-14T01:03:41.991Z,4.20
2023-02-14T01:06:09.594Z,4.20
2023-02-14T01:08:37.079Z,4.20
2023-02-14T01:11:18.027Z,4.20
2023-02-14T01:13:46.855Z,4.20
2023-02-14T01:16:18.488Z,4.20
2023-02-14T01:18:46.663Z,4.30
2023-02-14T01:21:40.450Z,4.30
2023-02-14T01:24:08.831Z,4.30
2023-02-14T01:26:36.759Z,4.20
2023-02-14T01:29:05.724Z,4.20
2023-02-14T01:31:35.782Z,4.20
2023-02-14T01:34:04.249Z,4.10
2023-02-14T01:36:38.993Z,4.20
2023-02-14T01:39:13.749Z,4.30
2023-02-14T01:41:43.810Z,4.20
2023-02-14T01:44:17.309Z,4.20
2023-02-14T01:46:46.470Z,4.10
2023-02-14T01:49:28.535Z,4.10
2023-02-14T01:52:12.655Z,4.10
2023-02-14T01:54:53.841Z,4.20
2023-02-14T01:57:22.973Z,4.20
2023-02-14T01:59:56.694Z,4.20
2023-02-14T02:02:24.387Z,4.20
2023-02-14T02:04:55.264Z,4.20
2023-02-14T02:07:26.349Z,4.20
2023-02-14T02:10:04.155Z,4.10
2023-02-14T02:12:31.964Z,4.20
2023-02-14T02:15:00.500Z,4.20
2023-02-14T02:17:57.031Z,4.10
2023-02-14T02:20:54.642Z,4.10
2023-02-14T02:23:48.891Z,4.10
2023-02-14T02:26:49.470Z,4.00
2023-02-14T02:29:41.938Z,4.00
2023-02-14T02:32:50.455Z,4.00
2023-02-14T02:35:44.532Z,4.00
2023-02-14T02:39:00.409Z,4.00
2023-02-14T02:41:54.777Z,4.00
2023-02-14T02:44:44.311Z,4.00
2023-02-14T02:47:26.523Z,4.00
2023-02-14T02:50:47.665Z,3.90
2023-02-14T02:53:20.782Z,4.00
2023-02-14T02:56:43.587Z,3.90
2023-02-14T02:59:18.612Z,4.00
2023-02-14T03:02:15.281Z,3.90
2023-02-14T03:04:57.024Z,3.90
2023-02-14T03:07:41.581Z,3.80
2023-02-14T03:10:13.818Z,3.80
2023-02-14T03:13:16.527Z,3.80
2023-02-14T03:16:34.637Z,3.80
2023-02-14T03:19:28.454Z,3.80
2023-02-14T03:22:09.529Z,3.80
2023-02-14T03:24:57.085Z,3.80
2023-02-14T03:27:40.427Z,3.80
2023-02-14T03:31:18.644Z,3.80
2023-02-14T03:33:58.743Z,3.80
2023-02-14T03:36:52.918Z,3.80
2023-02-14T03:39:25.819Z,3.90
2023-02-14T03:42:38.131Z,3.90
2023-02-14T03:45:09.775Z,3.80
2023-02-14T03:47:41.396Z,3.80
2023-02-14T03:50:18.501Z,3.90
2023-02-14T03:52:50.097Z,3.90
2023-02-14T03:55:27.930Z,3.90
2023-02-14T03:58:14.468Z,4.00
2023-02-14T04:00:43.932Z,3.90
2023-02-14T04:03:14.739Z,4.00
2023-02-14T04:05:46.895Z,4.00
2023-02-14T04:08:23.804Z,4.00
2023-02-14T04:10:57.752Z,3.90
2023-02-14T04:13:25.397Z,3.90
2023-02-14T04:15:52.806Z,3.90
2023-02-14T04:18:39.066Z,3.80
2023-02-14T04:21:07.012Z,3.80
2023-02-14T04:23:34.557Z,3.80
2023-02-14T04:26:04.170Z,3.80
2023-02-14T04:28:32.690Z,3.80
2023-02-14T04:31:06.746Z,3.80
2023-02-14T04:33:34.725Z,3.80
2023-02-14T04:36:02.215Z,3.80
2023-02-14T04:38:29.712Z,3.80
2023-02-14T04:40:57.333Z,3.70
2023-02-14T04:43:25.000Z,3.70
2023-02-14T04:45:52.374Z,3.60
2023-02-14T04:48:19.793Z,3.80
2023-02-14T04:50:53.750Z,3.80
2023-02-14T04:53:22.065Z,3.80
2023-02-14T04:55:50.699Z,3.80
2023-02-14T04:58:18.770Z,3.70
2023-02-14T05:00:46.316Z,3.80
2023-02-14T05:03:13.863Z,3.70
2023-02-14T05:05:41.305Z,3.70
2023-02-14T05:08:08.766Z,3.70
2023-02-14T05:10:36.192Z,3.70
2023-02-14T05:13:03.638Z,3.70
2023-02-14T05:15:31.061Z,3.80
2023-02-14T05:18:02.080Z,3.70
2023-02-14T05:20:30.015Z,3.70
2023-02-14T05:23:00.111Z,3.70
2023-02-14T05:25:27.573Z,3.80
2023-02-14T05:27:54.999Z,3.80
2023-02-14T05:30:26.722Z,3.80
2023-02-14T05:32:55.010Z,3.60
2023-02-14T05:35:22.522Z,3.60
2023-02-14T05:37:49.977Z,3.70
2023-02-14T05:40:17.690Z,3.60
2023-02-14T05:42:45.309Z,3.60
2023-02-14T05:45:13.070Z,3.70
2023-02-14T05:47:40.774Z,3.60
2023-02-14T05:50:08.842Z,3.60
2023-02-14T05:52:37.435Z,3.70
2023-02-14T05:55:06.262Z,3.70
2023-02-14T05:57:33.990Z,3.70
2023-02-14T06:00:01.591Z,3.80
2023-02-14T06:02:29.054Z,3.70
2023-02-14T06:04:56.581Z,3.70
2023-02-14T06:07:24.226Z,3.60
2023-02-14T06:09:51.668Z,3.60
2023-02-14T06:12:19.060Z,3.50
2023-02-14T06:14:46.571Z,3.60
2023-02-14T06:17:14.077Z,3.60
2023-02-14T06:19:42.668Z,3.60
2023-02-14T06:22:10.482Z,3.60
2023-02-14T06:24:37.856Z,3.50
2023-02-14T06:27:05.242Z,3.60
2023-02-14T06:29:32.687Z,3.60
2023-02-14T06:32:05.955Z,3.60
2023-02-14T06:34:34.959Z,3.50
2023-02-14T06:37:02.357Z,3.50
2023-02-14T06:39:29.766Z,3.50
2023-02-14T06:41:57.179Z,3.50
2023-02-14T06:44:24.604Z,3.50
2023-02-14T06:46:52.043Z,3.50
2023-02-14T06:49:19.525Z,3.50
2023-02-14T06:51:46.943Z,3.50
2023-02-14T06:54:14.379Z,3.50
2023-02-14T06:56:41.955Z,3.50
2023-02-14T06:59:09.387Z,3.50
2023-02-14T07:01:36.862Z,3.50
2023-02-14T07:04:04.594Z,3.50
2023-02-14T07:06:32.673Z,3.60
2023-02-14T07:09:00.139Z,3.70
2023-02-14T07:11:28.816Z,3.70
2023-02-14T07:13:56.240Z,3.70
2023-02-14T07:16:23.768Z,3.70
2023-02-14T07:18:51.206Z,3.70
2023-02-14T07:21:18.841Z,3.70
2023-02-14T07:23:47.894Z,3.70
2023-02-14T07:26:18.398Z,3.70
2023-02-14T07:28:49.253Z,3.80
2023-02-14T07:31:17.577Z,3.80
2023-02-14T07:33:45.139Z,3.80
2023-02-14T07:36:12.802Z,3.80
2023-02-14T07:38:40.321Z,3.70
2023-02-14T07:41:07.817Z,3.70
2023-02-14T07:43:35.290Z,3.80
2023-02-14T07:46:03.667Z,3.80
2023-02-14T07:48:33.695Z,3.80
2023-02-14T07:51:02.885Z,3.80
2023-02-14T07:53:30.698Z,3.80
2023-02-14T07:55:58.234Z,3.90
2023-02-14T07:58:25.748Z,4.00
2023-02-14T08:00:53.158Z,4.10
2023-02-14T08:03:20.602Z,4.10
2023-02-14T08:06:08.069Z,4.10
2023-02-14T08:08:35.450Z,4.20
2023-02-14T08:11:03.284Z,4.10
2023-02-14T08:13:30.733Z,4.20
2023-02-14T08:16:07.851Z,4.30
2023-02-14T08:18:41.206Z,4.20
2023-02-14T08:21:11.699Z,4.30
2023-02-14T08:23:39.266Z,4.40
2023-02-14T08:26:06.815Z,4.40
2023-02-14T08:28:35.125Z,4.50
2023-02-14T08:31:04.382Z,4.40
2023-02-14T08:33:32.090Z,4.40
2023-02-14T08:35:59.470Z,4.50
2023-02-14T08:38:26.986Z,4.60
2023-02-14T08:40:54.792Z,4.70
2023-02-14T08:43:22.286Z,4.80
2023-02-14T08:45:54.064Z,4.80
2023-02-14T08:48:23.667Z,4.80
2023-02-14T08:50:51.143Z,4.90
2023-02-14T08:53:19.178Z,5.00
2023-02-14T08:55:46.802Z,5.00
2023-02-14T08:58:14.586Z,5.00
2023-02-14T09:00:42.237Z,5.30
2023-02-14T09:03:10.799Z,5.40
2023-02-14T09:05:38.489Z,5.40
2023-02-14T09:08:06.048Z,5.30
2023-02-14T09:10:33.478Z,5.40
2023-02-14T09:13:01.358Z,5.40
2023-02-14T09:15:28.890Z,5.40
2023-02-14T09:17:56.370Z,5.30
2023-02-14T09:20:24.123Z,5.40
2023-02-14T09:22:55.858Z,5.50
2023-02-14T09:25:23.318Z,5.40
2023-02-14T09:27:50.858Z,5.40
2023-02-14T09:30:18.567Z,5.50
2023-02-14T09:32:46.215Z,5.60
2023-02-14T09:35:32.331Z,5.70
2023-02-14T09:37:59.839Z,5.80
2023-02-14T09:40:27.394Z,5.60
2023-02-14T09:43:15.447Z,5.60
2023-02-14T09:45:48.205Z,5.70
2023-02-14T09:48:30.119Z,5.90
2023-02-14T09:51:06.213Z,5.90
2023-02-14T09:53:39.570Z,6.00
2023-02-14T09:56:40.061Z,6.20
2023-02-14T09:59:25.823Z,6.30
2023-02-14T10:02:17.448Z,6.40
2023-02-14T10:05:06.020Z,6.50
2023-02-14T10:08:14.663Z,6.20
2023-02-14T10:11:02.688Z,6.30
2023-02-14T10:13:49.783Z,6.20
2023-02-14T10:16:45.060Z,5.90
2023-02-14T10:19:26.883Z,5.90
2023-02-14T10:22:02.067Z,6.00
2023-02-14T10:24:38.393Z,6.10
2023-02-14T10:27:46.179Z,5.90
2023-02-14T10:30:22.642Z,6.10
2023-02-14T10:33:13.014Z,6.10
2023-02-14T10:35:52.979Z,6.20
2023-02-14T10:38:46.712Z,6.30
2023-02-14T10:41:28.908Z,6.20
2023-02-14T10:44:16.856Z,6.10
2023-02-14T10:47:21.439Z,6.20
2023-02-14T10:50:24.027Z,6.00
2023-02-14T10:53:34.387Z,5.90
2023-02-14T10:56:06.551Z,6.00
2023-02-14T10:58:39.168Z,6.10
2023-02-14T11:01:16.311Z,6.10
2023-02-14T11:03:56.681Z,6.30
2023-02-14T11:06:24.328Z,6.20
2023-02-14T11:08:51.832Z,6.30
2023-02-14T11:11:52.592Z,6.40
2023-02-14T11:14:32.636Z,6.40
2023-02-14T11:17:26.396Z,6.20
2023-02-14T11:20:18.457Z,6.10
2023-02-14T11:22:47.123Z,5.90
2023-02-14T11:25:30.197Z,5.80
2023-02-14T11:28:10.731Z,5.70
2023-02-14T11:30:42.722Z,6.00
2023-02-14T11:33:41.277Z,6.30
2023-02-14T11:36:15.223Z,6.20
2023-02-14T11:38:45.603Z,6.10
2023-02-14T11:41:16.127Z,5.90
2023-02-14T11:43:45.901Z,5.90
2023-02-14T11:46:20.792Z,6.00
2023-02-14T11:49:07.276Z,6.10
2023-02-14T11:51:40.405Z,5.90
2023-02-14T11:54:35.864Z,6.00
2023-02-14T11:57:23.709Z,6.00
2023-02-14T11:59:55.455Z,6.00
2023-02-14T12:02:32.948Z,5.90
2023-02-14T12:06:00.797Z,5.90
2023-02-14T12:08:31.932Z,6.10
2023-02-14T12:11:21.803Z,6.40
2023-02-14T12:13:55.158Z,6.20
2023-02-14T12:16:53.115Z,6.40
2023-02-14T12:20:08.649Z,6.50
2023-02-14T12:22:47.483Z,6.50
2023-02-14T12:25:24.454Z,6.40
2023-02-14T12:28:01.620Z,6.30
2023-02-14T12:30:34.920Z,6.40
2023-02-14T12:33:02.598Z,6.10
2023-02-14T12:36:06.389Z,6.30
2023-02-14T12:39:01.919Z,6.20
2023-02-14T12:42:13.116Z,6.10
2023-02-14T12:45:16.213Z,6.10
2023-02-14T12:47:55.415Z,6.30
2023-02-14T12:51:16.683Z,6.40
2023-02-14T12:54:05.411Z,6.70
2023-02-14T12:57:12.611Z,6.60
2023-02-14T13:00:17.713Z,6.30
2023-02-14T13:03:18.711Z,6.10
2023-02-14T13:06:10.798Z,5.90
2023-02-14T13:09:16.512Z,5.70
2023-02-14T13:12:23.962Z,5.70
2023-02-14T13:15:32.293Z,5.80
2023-02-14T13:18:12.261Z,6.00
2023-02-14T13:20:59.533Z,5.90
2023-02-14T13:23:35.567Z,5.70
2023-02-14T13:26:21.019Z,5.60
2023-02-14T13:29:13.637Z,5.70
2023-02-14T13:31:42.631Z,5.60
2023-02-14T13:34:34.419Z,5.50
2023-02-14T13:37:06.876Z,5.40
2023-02-14T13:40:06.955Z,5.40
2023-02-14T13:42:52.721Z,5.30
2023-02-14T13:45:32.769Z,5.20
2023-02-14T13:48:21.893Z,5.30
2023-02-14T13:51:00.649Z,5.30
2023-02-14T13:53:48.504Z,5.20
2023-02-14T13:56:15.835Z,5.10
2023-02-14T13:59:00.603Z,5.20
2023-02-14T14:01:50.384Z,5.30
2023-02-14T14:04:30.488Z,5.40
2023-02-14T14:07:03.640Z,5.50
2023-02-14T14:09:43.339Z,5.50
2023-02-14T14:12:29.160Z,5.50
2023-02-14T14:15:06.010Z,5.40
2023-02-14T14:18:15.445Z,5.40
2023-02-14T14:20:52.654Z,5.40
2023-02-14T14:23:37.649Z,5.50
2023-02-14T14:26:48.074Z,5.40
2023-02-14T14:29:40.645Z,5.20
2023-02-14T14:32:19.264Z,5.30
2023-02-14T14:34:56.127Z,5.20
2023-02-14T14:37:33.471Z,5.20
2023-02-14T14:40:11.172Z,5.20
2023-02-14T14:42:40.549Z,5.30
2023-02-14T14:45:25.105Z,5.20
2023-02-14T14:48:01.701Z,5.20
2023-02-14T14:50:34.636Z,5.10
2023-02-14T14:53:09.641Z,5.10
2023-02-14T14:55:39.785Z,5.00
2023-02-14T14:58:32.840Z,5.00
2023-02-14T15:01:00.467Z,5.00
2023-02-14T15:03:29.461Z,5.00
2023-02-14T15:06:23.584Z,5.00
2023-02-14T15:08:52.033Z,5.10
2023-02-14T15:11:44.156Z,5.10
2023-02-14T15:14:19.984Z,5.00
2023-02-14T15:16:51.826Z,4.90
2023-02-14T15:19:31.667Z,4.80
2023-02-14T15:21:59.961Z,4.70
2023-02-14T15:24:27.709Z,4.70
2023-02-14T15:26:56.629Z,4.70
2023-02-14T15:29:31.724Z,4.60
2023-02-14T15:32:03.268Z,4.70
2023-02-14T15:34:36.326Z,4.70
2023-02-14T15:37:07.019Z,4.70
2023-02-14T15:39:44.006Z,4.60
2023-02-14T15:42:26.266Z,4.60
2023-02-14T15:45:24.262Z,4.60
2023-02-14T15:47:58.748Z,4.50
2023-02-14T15:50:32.310Z,4.50
2023-02-14T15:53:28.502Z,4.50
2023-02-14T15:56:03.906Z,4.40
2023-02-14T15:58:32.933Z,4.30
2023-02-14T16:01:00.918Z,4.30
2023-02-14T16:03:36.320Z,4.30
2023-02-14T16:06:05.430Z,4.20
2023-02-14T16:08:37.229Z,4.20
2023-02-14T16:11:30.250Z,4.10
2023-02-14T16:13:58.266Z,4.00
2023-02-14T16:16:26.099Z,4.00
2023-02-14T16:18:56.931Z,4.00
2023-02-14T16:21:34.043Z,4.00
2023-02-14T16:24:07.438Z,4.00
2023-02-14T16:26:38.378Z,4.00
2023-02-14T16:29:11.413Z,4.00
2023-02-14T16:32:06.232Z,4.00
2023-02-14T16:34:32.004Z,4.00
2023-02-14T16:37:09.062Z,4.00
2023-02-14T16:39:39.601Z,4.00
2023-02-14T16:42:17.923Z,3.90
2023-02-14T16:44:46.934Z,3.90
2023-02-14T16:47:18.182Z,3.90
2023-02-14T16:49:45.876Z,3.90
2023-02-14T16:52:23.436Z,3.90
2023-02-14T16:54:51.492Z,3.80
2023-02-14T16:57:27.750Z,3.80
2023-02-14T16:59:56.733Z,3.80
2023-02-14T17:02:28.439Z,3.70
2023-02-14T17:04:56.366Z,3.70
2023-02-14T17:07:24.203Z,3.60
2023-02-14T17:09:58.065Z,3.60
2023-02-14T17:12:31.788Z,3.50
2023-02-14T17:15:06.178Z,3.50
2023-02-14T17:17:35.896Z,3.50
2023-02-14T17:20:06.290Z,3.40
2023-02-14T17:22:34.718Z,3.40
2023-02-14T17:25:02.409Z,3.40
2023-02-14T17:27:29.795Z,3.40
2023-02-14T17:29:57.392Z,3.40
2023-02-14T17:32:24.993Z,3.40
2023-02-14T17:34:52.492Z,3.40
2023-02-14T17:37:19.962Z,3.40
2023-02-14T17:39:47.378Z,3.40
2023-02-14T17:42:14.962Z,3.40
2023-02-14T17:44:42.461Z,3.40
2023-02-14T17:47:09.937Z,3.40
2023-02-14T17:49:38.150Z,3.40
2023-02-14T17:52:05.881Z,3.30
2023-02-14T17:54:38.323Z,3.30
2023-02-14T17:57:06.077Z,3.30
2023-02-14T17:59:34.185Z,3.30
2023-02-14T18:02:01.755Z,3.30
2023-02-14T18:04:35.225Z,3.20
2023-02-14T18:07:03.836Z,3.10
2023-02-14T18:09:31.421Z,3.00
2023-02-14T18:11:59.048Z,3.00
2023-02-14T18:14:26.945Z,2.90
2023-02-14T18:16:54.375Z,2.90
2023-02-14T18:19:21.947Z,3.00
2023-02-14T18:21:49.498Z,3.00
2023-02-14T18:24:17.078Z,3.10
2023-02-14T18:26:44.738Z,3.10
2023-02-14T18:29:13.089Z,3.10
2023-02-14T18:31:43.592Z,3.00
2023-02-14T18:34:11.499Z,3.00
2023-02-14T18:36:41.773Z,3.00
2023-02-14T18:39:10.580Z,3.00
2023-02-14T18:41:38.212Z,2.90
2023-02-14T18:44:06.143Z,2.90
2023-02-14T18:46:36.438Z,2.90
2023-02-14T18:49:07.237Z,2.90
2023-02-14T18:51:39.479Z,2.80
2023-02-14T18:54:07.630Z,2.80
2023-02-14T18:56:38.993Z,2.60
2023-02-14T18:59:09.621Z,2.60
2023-02-14T19:01:42.214Z,2.60
2023-02-14T19:04:12.416Z,2.60
2023-02-14T19:06:42.164Z,2.60
2023-02-14T19:09:13.146Z,2.50
2023-02-14T19:11:41.438Z,2.40
2023-02-14T19:14:10.552Z,2.40
2023-02-14T19:16:50.440Z,2.50
2023-02-14T19:19:20.236Z,2.40
2023-02-14T19:21:48.363Z,2.50
2023-02-14T19:24:17.592Z,2.50
2023-02-14T19:26:45.084Z,2.50
2023-02-14T19:29:16.484Z,2.50
2023-02-14T19:31:48.672Z,2.40
2023-02-14T19:34:21.133Z,2.30
2023-02-14T19:36:52.742Z,2.30
2023-02-14T19:39:23.220Z,2.30
2023-02-14T19:41:51.547Z,2.40
2023-02-14T19:44:19.395Z,2.50
2023-02-14T19:46:47.830Z,2.60
2023-02-14T19:49:20.463Z,2.60
2023-02-14T19:51:51.615Z,2.50
2023-02-14T19:54:22.099Z,2.50
2023-02-14T19:56:49.570Z,2.50
2023-02-14T19:59:20.473Z,2.60
2023-02-14T20:01:53.710Z,2.60
2023-02-14T20:04:28.294Z,2.50
2023-02-14T20:06:56.740Z,2.50
2023-02-14T20:09:25.003Z,2.50
2023-02-14T20:11:57.527Z,2.50
2023-02-14T20:14:50.246Z,2.50
2023-02-14T20:17:19.640Z,2.40
2023-02-14T20:19:47.155Z,2.40
2023-02-14T20:22:14.661Z,2.20
2023-02-14T20:24:42.090Z,2.10
2023-02-14T20:27:09.523Z,1.90
2023-02-14T20:29:39.130Z,1.80
2023-02-14T20:32:06.738Z,1.80
2023-02-14T20:34:34.296Z,1.70
2023-02-14T20:37:01.971Z,1.60
2023-02-14T20:39:33.193Z,1.60
2023-02-14T20:42:02.103Z,1.50
2023-02-14T20:44:29.885Z,1.40
2023-02-14T20:46:58.400Z,1.30
2023-02-14T20:49:28.308Z,1.20
2023-02-14T20:51:56.281Z,1.10
2023-02-14T20:54:26.639Z,1.10
2023-02-14T20:56:55.097Z,0.90
2023-02-14T20:59:29.109Z,0.70
2023-02-14T21:01:58.721Z,0.60
2023-02-14T21:04:26.703Z,0.40
2023-02-14T21:06:54.219Z,0.20
2023-02-14T21:09:21.772Z,0.10
2023-02-14T21:11:50.413Z,-0.10
2023-02-14T21:14:17.798Z,-0.10
2023-02-14T21:16:45.340Z,-0.20
2023-02-14T21:19:12.777Z,-0.30
2023-02-14T21:21:40.951Z,-0.40
2023-02-14T21:24:11.944Z,-0.40
2023-02-14T21:26:40.113Z,-0.40
2023-02-14T21:29:08.718Z,-0.50
2023-02-14T21:31:37.401Z,-0.60
2023-02-14T21:34:04.987Z,-0.60
2023-02-14T21:36:37.738Z,-0.60
2023-02-14T21:39:06.977Z,-0.30
2023-02-14T21:41:35.934Z,-0.30
2023-02-14T21:44:04.897Z,-0.50
2023-02-14T21:46:37.049Z,-0.70
2023-02-14T21:49:24.820Z,-0.90
2023-02-14T21:51:52.444Z,-1.10
2023-02-14T21:54:19.965Z,-1.20
2023-02-14T21:56:49.448Z,-1.30
2023-02-14T21:59:16.921Z,-1.40
2023-02-14T22:01:44.523Z,-1.40
2023-02-14T22:04:13.307Z,-1.30
2023-02-14T22:06:42.781Z,-1.30
2023-02-14T22:09:13.671Z,-1.40
2023-02-14T22:11:41.405Z,-1.20
2023-02-14T22:14:09.169Z,-1.10
2023-02-14T22:16:37.060Z,-1.10
2023-02-14T22:19:06.806Z,-1.10
2023-02-14T22:21:35.136Z,-1.10
2023-02-14T22:24:02.819Z,-1.10
2023-02-14T22:26:38.947Z,-1.10
2023-02-14T22:29:07.863Z,-1.10
2023-02-14T22:31:40.459Z,-1.10
2023-02-14T22:34:11.762Z,-1.30
2023-02-14T22:36:39.288Z,-1.30
2023-02-14T22:39:07.715Z,-1.50
2023-02-14T22:41:38.004Z,-1.70
2023-02-14T22:44:06.512Z,-1.80
2023-02-14T22:46:36.916Z,-1.90
2023-02-14T22:49:05.690Z,-1.90
2023-02-14T22:51:38.616Z,-2.00
2023-02-14T22:54:10.483Z,-1.90
2023-02-14T22:56:49.421Z,-1.80
2023-02-14T22:59:24.202Z,-1.70
2023-02-14T23:01:53.493Z,-1.60
2023-02-14T23:04:23.302Z,-1.60
2023-02-14T23:06:52.578Z,-1.60
2023-02-14T23:09:20.718Z,-1.60
2023-02-14T23:11:48.689Z,-1.40
2023-02-14T23:14:36.868Z,-1.30
2023-02-14T23:17:24.671Z,-1.30
2023-02-14T23:20:10.848Z,-1.30
2023-02-14T23:22:41.065Z,-1.30
2023-02-14T23:25:12.014Z,-1.20
2023-02-14T23:27:43.224Z,-1.20
2023-02-14T23:30:17.100Z,-1.20
2023-02-14T23:32:45.468Z,-1.20
2023-02-14T23:35:13.212Z,-1.10
2023-02-14T23:37:41.182Z,-1.10
2023-02-14T23:40:10.102Z,-1.10
2023-02-14T23:42:37.778Z,-1.20
2023-02-14T23:45:24.010Z,-1.20
2023-02-14T23:47:51.603Z,-1.20
2023-02-14T23:50:19.281Z,-1.30
2023-02-14T23:52:46.952Z,-1.20
2023-02-14T23:55:14.403Z,-1.30
2023-02-14T23:57:41.942Z,-1.30
